createdAt,value
2019-06-07T00:00:44.554Z,21.51
2019-06-07T00:03:26.625Z,21.50
2019-06-07T00:05:48.506Z,21.48
2019-06-07T00:08:27.054Z,21.46
2019-06-07T00:10:52.343Z,21.43
2019-06-07T00:13:23.417Z,21.39
2019-06-07T00:15:54.482Z,21.37
2019-06-07T00:18:26.232Z,21.35
2019-06-07T00:20:57.396Z,21.33
2019-06-07T00:23:28.527Z,21.31
2019-06-07T00:25:59.542Z,21.30
2019-06-07T00:28:30.631Z,21.28
2019-06-07T00:31:01.698Z,21.26
2019-06-07T00:33:32.790Z,21.23
2019-06-07T00:36:04.129Z,21.21
2019-06-07T00:38:35.208Z,21.20
2019-06-07T00:41:06.258Z,21.16
2019-06-07T00:43:37.335Z,21.14
2019-06-07T00:46:08.395Z,21.12
2019-06-07T00:48:39.516Z,21.08
2019-06-07T00:51:11.620Z,21.05
2019-06-07T00:53:42.730Z,21.02
2019-06-07T00:56:13.904Z,20.98
2019-06-07T00:58:44.970Z,20.95
2019-06-07T01:01:18.837Z,20.91
2019-06-07T01:03:48.861Z,20.87
2019-06-07T01:06:22.970Z,20.84
2019-06-07T01:08:52.771Z,20.82
2019-06-07T01:11:26.009Z,20.77
2019-06-07T01:13:56.579Z,20.74
2019-06-07T01:16:27.716Z,20.72
2019-06-07T01:18:58.739Z,20.68
2019-06-07T01:21:30.124Z,20.65
2019-06-07T01:24:11.502Z,20.61
2019-06-07T01:26:33.912Z,20.59
2019-06-07T01:29:05.067Z,20.55
2019-06-07T01:31:36.156Z,20.53
2019-06-07T01:34:07.210Z,20.49
2019-06-07T01:36:38.267Z,20.47
2019-06-07T01:39:09.368Z,20.44
2019-06-07T01:41:40.429Z,20.42
2019-06-07T01:44:11.513Z,20.40
2019-06-07T01:46:42.566Z,20.37
2019-06-07T01:49:13.648Z,20.34
2019-06-07T01:51:44.703Z,20.30
2019-06-07T01:56:48.540Z,20.25
2019-06-07T01:59:21.928Z,20.24
2019-06-07T02:01:52.374Z,20.20
2019-06-07T02:04:28.870Z,20.19
2019-06-07T02:06:56.215Z,20.15
2019-06-07T02:09:29.911Z,20.13
2019-06-07T02:12:00.059Z,20.12
2019-06-07T02:14:33.597Z,20.09
2019-06-07T02:17:04.866Z,20.07
2019-06-07T02:19:36.002Z,20.03
2019-06-07T02:22:07.066Z,20.01
2019-06-07T02:24:38.171Z,19.97
2019-06-07T02:27:09.214Z,19.95
2019-06-07T02:29:40.298Z,19.92
2019-06-07T02:32:11.376Z,19.91
2019-06-07T02:34:42.428Z,19.88
2019-06-07T02:37:13.503Z,19.88
2019-06-07T02:39:44.591Z,19.84
2019-06-07T02:42:15.689Z,19.82
2019-06-07T02:44:46.811Z,19.79
2019-06-07T02:47:19.801Z,19.77
2019-06-07T02:49:50.862Z,19.74
2019-06-07T02:52:24.248Z,19.71
2019-06-07T02:54:54.751Z,19.70
2019-06-07T02:57:29.287Z,19.65
2019-06-07T03:00:16.793Z,19.63
2019-06-07T03:02:40.367Z,19.59
2019-06-07T03:05:06.537Z,19.57
2019-06-07T03:07:40.235Z,19.55
2019-06-07T03:10:11.750Z,19.50
2019-06-07T03:12:45.247Z,19.47
2019-06-07T03:15:32.626Z,19.44
2019-06-07T03:17:50.968Z,19.42
2019-06-07T03:20:27.601Z,19.39
2019-06-07T03:23:01.909Z,19.37
2019-06-07T03:25:39.234Z,19.36
2019-06-07T03:28:10.432Z,19.32
2019-06-07T03:30:58.136Z,19.30
2019-06-07T03:33:14.285Z,19.31
2019-06-07T03:35:45.368Z,19.29
2019-06-07T03:38:16.793Z,19.28
2019-06-07T03:40:47.874Z,19.27
2019-06-07T03:43:18.919Z,19.27
2019-06-07T03:45:50.033Z,19.26
2019-06-07T03:48:21.115Z,19.25
2019-06-07T03:51:04.109Z,19.26
2019-06-07T03:53:24.975Z,19.25
2019-06-07T03:55:56.103Z,19.26
2019-06-07T03:58:32.609Z,19.25
2019-06-07T04:01:02.115Z,19.25
2019-06-07T04:03:40.085Z,19.27
2019-06-07T04:06:05.596Z,19.28
2019-06-07T04:08:41.384Z,19.27
2019-06-07T04:11:09.435Z,19.28
2019-06-07T04:13:42.631Z,19.28
2019-06-07T04:16:13.276Z,19.28
2019-06-07T04:18:44.365Z,19.29
2019-06-07T04:21:15.422Z,19.30
2019-06-07T04:23:46.500Z,19.30
2019-06-07T04:26:17.604Z,19.31
2019-06-07T04:29:31.569Z,19.31
2019-06-07T04:31:22.287Z,19.32
2019-06-07T04:33:53.471Z,19.34
2019-06-07T04:36:41.809Z,19.36
2019-06-07T04:38:59.300Z,19.37
2019-06-07T04:41:33.618Z,19.39
2019-06-07T04:44:04.831Z,19.41
2019-06-07T04:46:40.758Z,19.42
2019-06-07T04:49:12.257Z,19.47
2019-06-07T04:51:45.242Z,19.49
2019-06-07T04:54:16.361Z,19.53
2019-06-07T04:56:47.459Z,19.57
2019-06-07T05:00:00.292Z,19.61
2019-06-07T05:01:51.309Z,19.66
2019-06-07T05:04:22.587Z,19.71
2019-06-07T05:06:53.664Z,19.76
2019-06-07T05:09:24.759Z,19.81
2019-06-07T05:11:55.828Z,19.86
2019-06-07T05:14:26.899Z,19.90
2019-06-07T05:16:59.265Z,19.96
2019-06-07T05:19:31.208Z,20.02
2019-06-07T05:22:05.022Z,20.06
2019-06-07T05:24:38.479Z,20.10
2019-06-07T05:27:08.693Z,20.17
2019-06-07T05:29:41.653Z,20.21
2019-06-07T05:32:12.661Z,20.27
2019-06-07T05:34:47.344Z,20.31
2019-06-07T05:37:16.533Z,20.37
2019-06-07T05:39:47.596Z,20.44
2019-06-07T05:42:18.651Z,20.52
2019-06-07T05:44:49.841Z,20.59
2019-06-07T05:47:21.041Z,20.62
2019-06-07T05:49:52.131Z,20.68
2019-06-07T05:52:23.217Z,20.73
2019-06-07T05:54:54.300Z,20.79
2019-06-07T05:57:25.356Z,20.85
2019-06-07T05:59:56.461Z,20.90
2019-06-07T06:02:27.532Z,20.97
2019-06-07T06:04:58.720Z,21.03
2019-06-07T06:07:29.877Z,21.09
2019-06-07T06:10:00.939Z,21.15
2019-06-07T06:12:38.216Z,21.21
2019-06-07T06:15:07.408Z,21.27
2019-06-07T06:17:42.666Z,21.33
2019-06-07T06:20:11.423Z,21.39
2019-06-07T06:22:48.755Z,21.43
2019-06-07T06:25:31.406Z,21.49
2019-06-07T06:28:10.039Z,21.54
2019-06-07T06:30:22.892Z,21.60
2019-06-07T06:32:58.102Z,21.66
2019-06-07T06:35:26.747Z,21.71
2019-06-07T06:37:57.831Z,21.77
2019-06-07T06:40:28.902Z,21.81
2019-06-07T06:42:59.989Z,21.85
2019-06-07T06:45:31.058Z,21.90
2019-06-07T06:48:02.177Z,21.96
2019-06-07T06:50:33.254Z,21.99
2019-06-07T06:53:04.318Z,22.05
2019-06-07T06:55:35.434Z,22.11
2019-06-07T06:58:06.507Z,22.17
2019-06-07T07:01:04.118Z,22.20
2019-06-07T07:03:57.419Z,22.25
2019-06-07T07:05:56.364Z,22.30
2019-06-07T07:08:32.620Z,22.33
2019-06-07T07:11:03.653Z,22.39
2019-06-07T07:13:34.753Z,22.44
2019-06-07T07:16:05.887Z,22.51
2019-06-07T07:18:36.959Z,22.59
2019-06-07T07:21:08.039Z,22.66
2019-06-07T07:23:39.121Z,22.71
2019-06-07T07:26:10.234Z,22.73
2019-06-07T07:28:42.987Z,22.76
2019-06-07T07:31:14.099Z,22.79
2019-06-07T07:36:38.808Z,22.88
2019-06-07T07:39:04.523Z,22.95
2019-06-07T07:41:31.303Z,22.99
2019-06-07T07:44:07.126Z,23.06
2019-06-07T07:46:36.755Z,23.14
2019-06-07T07:49:07.825Z,23.21
2019-06-07T07:51:38.891Z,23.32
2019-06-07T07:54:11.222Z,23.39
2019-06-07T07:56:42.400Z,23.44
2019-06-07T07:59:13.491Z,23.49
2019-06-07T08:01:46.011Z,23.50
2019-06-07T08:04:17.213Z,23.53
2019-06-07T08:06:49.031Z,23.56
2019-06-07T08:09:21.025Z,23.60
2019-06-07T08:11:54.870Z,23.63
2019-06-07T08:14:24.849Z,23.66
2019-06-07T08:16:57.895Z,23.67
2019-06-07T08:19:28.759Z,23.68
2019-06-07T08:22:17.546Z,23.69
2019-06-07T08:24:52.989Z,23.73
2019-06-07T08:27:26.719Z,23.74
2019-06-07T08:30:46.327Z,23.81
2019-06-07T08:32:51.506Z,23.90
2019-06-07T08:36:03.595Z,23.96
2019-06-07T08:38:22.128Z,24.03
2019-06-07T08:40:35.797Z,24.07
2019-06-07T08:43:19.943Z,24.13
2019-06-07T08:45:39.703Z,24.19
2019-06-07T08:48:27.556Z,24.28
2019-06-07T08:51:08.885Z,24.34
2019-06-07T08:53:41.269Z,24.37
2019-06-07T08:56:18.745Z,24.42
2019-06-07T08:59:16.544Z,24.49
2019-06-07T09:01:52.090Z,24.55
2019-06-07T09:04:26.980Z,24.57
2019-06-07T09:07:08.918Z,24.58
2019-06-07T09:09:39.401Z,24.62
2019-06-07T09:12:18.981Z,24.67
2019-06-07T09:18:37.982Z,24.71
2019-06-07T09:20:58.207Z,24.65
2019-06-07T09:24:21.291Z,24.64
2019-06-07T09:26:25.891Z,24.63
2019-06-07T09:28:58.446Z,24.66
2019-06-07T09:31:51.181Z,24.65
2019-06-07T09:34:13.708Z,24.70
2019-06-07T09:36:39.956Z,24.73
2019-06-07T09:39:12.691Z,24.76
2019-06-07T09:41:49.641Z,24.76
2019-06-07T09:44:24.739Z,24.76
2019-06-07T09:47:12.939Z,24.76
2019-06-07T09:49:32.213Z,24.77
2019-06-07T09:52:02.216Z,24.83
2019-06-07T09:57:16.697Z,24.87
2019-06-07T09:59:48.048Z,24.83
2019-06-07T10:02:19.188Z,24.79
2019-06-07T10:04:50.295Z,24.76
2019-06-07T10:07:31.280Z,24.76
2019-06-07T10:10:19.831Z,24.81
2019-06-07T10:12:27.073Z,24.93
2019-06-07T10:14:58.719Z,25.04
2019-06-07T10:17:30.753Z,25.17
2019-06-07T10:20:02.575Z,25.28
2019-06-07T10:22:34.642Z,25.33
2019-06-07T10:25:08.507Z,25.38
2019-06-07T10:27:39.770Z,25.41
2019-06-07T10:30:12.239Z,25.47
2019-06-07T10:32:43.284Z,25.54
2019-06-07T10:35:16.424Z,25.58
2019-06-07T10:37:52.363Z,25.60
2019-06-07T10:40:25.306Z,25.61
2019-06-07T10:42:57.429Z,25.60
2019-06-07T10:45:28.604Z,25.60
2019-06-07T10:47:59.617Z,25.63
2019-06-07T10:50:30.718Z,25.64
2019-06-07T10:53:02.338Z,25.65
2019-06-07T10:55:33.537Z,25.64
2019-06-07T10:58:05.002Z,25.65
2019-06-07T11:00:36.380Z,25.63
2019-06-07T11:03:08.041Z,25.64
2019-06-07T11:05:39.322Z,25.64
2019-06-07T11:08:10.441Z,25.66
2019-06-07T11:10:41.460Z,25.67
2019-06-07T11:13:12.547Z,25.72
2019-06-07T11:15:43.630Z,25.76
2019-06-07T11:18:32.487Z,25.77
2019-06-07T11:21:12.185Z,25.79
2019-06-07T11:23:44.516Z,25.82
2019-06-07T11:26:21.660Z,25.79
2019-06-07T11:28:52.763Z,25.74
2019-06-07T11:31:25.932Z,25.68
2019-06-07T11:33:56.707Z,25.68
2019-06-07T11:36:27.910Z,25.71
2019-06-07T11:38:58.973Z,25.74
2019-06-07T11:41:30.060Z,25.76
2019-06-07T11:44:04.175Z,25.76
2019-06-07T11:46:35.246Z,25.81
2019-06-07T11:49:06.691Z,25.89
2019-06-07T11:51:51.822Z,25.99
2019-06-07T11:54:25.472Z,26.09
2019-06-07T11:56:57.262Z,26.15
2019-06-07T11:59:28.315Z,26.26
2019-06-07T12:01:59.422Z,26.37
2019-06-07T12:04:34.802Z,26.51
2019-06-07T12:07:04.468Z,26.64
2019-06-07T12:09:36.514Z,26.74
2019-06-07T12:12:08.208Z,26.82
2019-06-07T12:14:39.360Z,26.85
2019-06-07T12:17:11.238Z,26.92
2019-06-07T12:19:42.375Z,27.01
2019-06-07T12:22:14.048Z,27.02
2019-06-07T12:24:45.425Z,27.04
2019-06-07T12:27:16.730Z,27.07
2019-06-07T12:29:47.959Z,27.12
2019-06-07T12:32:19.609Z,27.20
2019-06-07T12:34:54.075Z,27.25
2019-06-07T12:37:42.081Z,27.33
2019-06-07T12:39:57.913Z,27.40
2019-06-07T12:42:33.512Z,27.49
2019-06-07T12:45:08.935Z,27.57
2019-06-07T12:47:39.205Z,27.67
2019-06-07T12:50:13.382Z,27.70
2019-06-07T12:52:45.777Z,27.79
2019-06-07T12:55:18.156Z,27.90
2019-06-07T12:57:50.178Z,27.99
2019-06-07T13:00:22.711Z,28.06
2019-06-07T13:02:53.886Z,28.10
2019-06-07T13:05:24.922Z,28.15
2019-06-07T13:08:02.175Z,28.19
2019-06-07T13:10:36.070Z,28.23
2019-06-07T13:13:07.138Z,28.29
2019-06-07T13:15:38.223Z,28.36
2019-06-07T13:18:17.446Z,28.40
2019-06-07T13:20:49.103Z,28.47
2019-06-07T13:23:20.847Z,28.53
2019-06-07T13:25:52.282Z,28.57
2019-06-07T13:28:24.619Z,28.54
2019-06-07T13:30:55.871Z,28.53
2019-06-07T13:33:33.933Z,28.47
2019-06-07T13:35:59.731Z,28.38
2019-06-07T13:38:30.820Z,28.28
2019-06-07T13:41:01.874Z,28.17
2019-06-07T13:43:34.331Z,28.07
2019-06-07T13:46:05.411Z,28.01
2019-06-07T13:48:36.496Z,27.91
2019-06-07T13:51:07.558Z,27.84
2019-06-07T13:53:38.642Z,27.78
2019-06-07T13:56:09.700Z,27.72
2019-06-07T13:58:40.802Z,27.74
2019-06-07T14:01:11.863Z,27.77
2019-06-07T14:03:42.932Z,27.77
2019-06-07T14:06:14.012Z,27.77
2019-06-07T14:08:45.073Z,27.81
2019-06-07T14:11:16.152Z,27.88
2019-06-07T14:13:47.223Z,27.92
2019-06-07T14:16:18.314Z,28.02
2019-06-07T14:18:49.370Z,28.11
2019-06-07T14:21:20.491Z,28.22
2019-06-07T14:23:51.542Z,28.33
2019-06-07T14:26:23.212Z,28.43
2019-06-07T14:32:19.082Z,28.60
2019-06-07T14:34:50.162Z,28.61
2019-06-07T14:37:22.688Z,28.65
2019-06-07T14:39:53.888Z,28.70
2019-06-07T14:42:25.373Z,28.76
2019-06-07T14:44:56.535Z,28.79
2019-06-07T14:47:27.940Z,28.80
2019-06-07T14:49:59.058Z,28.80
2019-06-07T14:52:30.671Z,28.79
2019-06-07T14:55:01.877Z,28.79
2019-06-07T14:57:33.666Z,28.76
2019-06-07T15:00:11.461Z,28.73
2019-06-07T15:02:41.966Z,28.68
2019-06-07T15:05:14.634Z,28.64
2019-06-07T15:07:45.693Z,28.63
2019-06-07T15:10:17.077Z,28.60
2019-06-07T15:12:48.216Z,28.57
2019-06-07T15:15:19.479Z,28.53
2019-06-07T15:17:50.580Z,28.51
2019-06-07T15:20:22.694Z,28.48
2019-06-07T15:22:53.773Z,28.45
2019-06-07T15:25:24.928Z,28.42
2019-06-07T15:27:56.019Z,28.40
2019-06-07T15:30:27.444Z,28.37
2019-06-07T15:32:59.796Z,28.37
2019-06-07T15:35:32.142Z,28.35
2019-06-07T15:38:03.399Z,28.33
2019-06-07T15:40:35.267Z,28.30
2019-06-07T15:43:06.516Z,28.28
2019-06-07T15:45:37.838Z,28.26
2019-06-07T15:48:08.960Z,28.23
2019-06-07T15:50:40.443Z,28.19
2019-06-07T15:53:11.782Z,28.16
2019-06-07T15:55:45.629Z,28.13
2019-06-07T15:58:15.652Z,28.11
2019-06-07T16:00:49.920Z,28.08
2019-06-07T16:03:19.513Z,28.08
2019-06-07T16:05:50.573Z,28.07
2019-06-07T16:08:21.648Z,28.07
2019-06-07T16:10:52.727Z,28.05
2019-06-07T16:13:23.818Z,28.04
2019-06-07T16:15:54.872Z,28.03
2019-06-07T16:18:25.953Z,28.02
2019-06-07T16:20:56.995Z,28.02
2019-06-07T16:23:28.068Z,28.00
2019-06-07T16:25:59.112Z,28.00
2019-06-07T16:28:30.190Z,28.00
2019-06-07T16:31:01.277Z,27.99
2019-06-07T16:33:32.327Z,27.99
2019-06-07T16:36:03.391Z,27.97
2019-06-07T16:38:34.453Z,27.93
2019-06-07T16:41:06.367Z,27.90
2019-06-07T16:43:38.592Z,27.88
2019-06-07T16:46:09.742Z,27.88
2019-06-07T16:48:40.933Z,27.87
2019-06-07T16:51:11.963Z,27.88
2019-06-07T16:53:44.453Z,27.88
2019-06-07T16:56:15.691Z,27.87
2019-06-07T16:58:46.741Z,27.88
2019-06-07T17:01:17.815Z,27.88
2019-06-07T17:03:48.889Z,27.87
2019-06-07T17:06:19.940Z,27.89
2019-06-07T17:08:52.896Z,27.90
2019-06-07T17:11:23.955Z,27.90
2019-06-07T17:13:55.014Z,27.91
2019-06-07T17:16:26.085Z,27.91
2019-06-07T17:18:57.162Z,27.91
2019-06-07T17:21:28.309Z,27.90
2019-06-07T17:23:59.382Z,27.91
2019-06-07T17:26:30.419Z,27.91
2019-06-07T17:29:01.493Z,27.90
2019-06-07T17:31:32.566Z,27.89
2019-06-07T17:34:03.643Z,27.86
2019-06-07T17:36:34.745Z,27.84
2019-06-07T17:39:10.281Z,27.82
2019-06-07T17:41:52.392Z,27.78
2019-06-07T17:44:14.247Z,27.77
2019-06-07T17:46:45.582Z,27.74
2019-06-07T17:49:20.587Z,27.74
2019-06-07T17:51:52.259Z,27.74
2019-06-07T17:54:23.375Z,27.72
2019-06-07T17:56:54.452Z,27.71
2019-06-07T17:59:25.499Z,27.71
2019-06-07T18:02:13.614Z,27.71
2019-06-07T18:04:31.992Z,27.71
2019-06-07T18:07:03.137Z,27.70
2019-06-07T18:09:37.094Z,27.68
2019-06-07T18:12:08.169Z,27.65
2019-06-07T18:14:39.217Z,27.62
2019-06-07T18:17:10.336Z,27.60
2019-06-07T18:19:41.409Z,27.60
2019-06-07T18:22:12.462Z,27.59
2019-06-07T18:24:44.422Z,27.57
2019-06-07T18:27:15.472Z,27.56
2019-06-07T18:29:46.555Z,27.54
2019-06-07T18:32:17.596Z,27.53
2019-06-07T18:34:48.768Z,27.48
2019-06-07T18:37:19.799Z,27.44
2019-06-07T18:39:51.118Z,27.40
2019-06-07T18:42:22.209Z,27.38
2019-06-07T18:44:53.281Z,27.35
2019-06-07T18:47:24.349Z,27.31
2019-06-07T18:49:57.991Z,27.29
2019-06-07T18:52:31.163Z,27.27
2019-06-07T18:55:02.239Z,27.25
2019-06-07T18:57:33.335Z,27.21
2019-06-07T19:00:16.767Z,27.18
2019-06-07T19:02:47.873Z,27.15
2019-06-07T19:05:19.244Z,27.11
2019-06-07T19:07:50.497Z,27.07
2019-06-07T19:10:21.911Z,27.05
2019-06-07T19:12:53.298Z,27.04
2019-06-07T19:15:25.599Z,27.01
2019-06-07T19:17:58.023Z,27.00
2019-06-07T19:20:29.776Z,26.96
2019-06-07T19:23:00.820Z,26.93
2019-06-07T19:25:31.881Z,26.90
2019-06-07T19:28:02.967Z,26.87
2019-06-07T19:30:34.143Z,26.86
2019-06-07T19:33:05.178Z,26.84
2019-06-07T19:35:36.231Z,26.83
2019-06-07T19:38:07.282Z,26.81
2019-06-07T19:40:38.378Z,26.79
2019-06-07T19:43:09.427Z,26.79
2019-06-07T19:45:40.568Z,26.79
2019-06-07T19:48:11.625Z,26.77
2019-06-07T19:50:42.700Z,26.77
2019-06-07T19:53:13.812Z,26.76
2019-06-07T19:55:44.869Z,26.75
2019-06-07T19:58:15.972Z,26.73
2019-06-07T20:00:47.477Z,26.73
2019-06-07T20:03:18.577Z,26.71
2019-06-07T20:05:49.631Z,26.70
2019-06-07T20:08:20.679Z,26.70
2019-06-07T20:10:51.752Z,26.69
2019-06-07T20:13:22.808Z,26.68
2019-06-07T20:15:54.713Z,26.66
2019-06-07T20:18:27.958Z,26.65
2019-06-07T20:20:58.694Z,26.63
2019-06-07T20:23:29.757Z,26.61
2019-06-07T20:26:00.846Z,26.60
2019-06-07T20:28:31.890Z,26.58
2019-06-07T20:31:03.937Z,26.56
2019-06-07T20:33:35.151Z,26.53
2019-06-07T20:36:06.201Z,26.48
2019-06-07T20:38:37.275Z,26.38
2019-06-07T20:41:08.325Z,26.26
2019-06-07T20:43:39.394Z,26.07
2019-06-07T20:46:10.468Z,25.73
2019-06-07T20:48:41.525Z,25.19
2019-06-07T20:51:12.595Z,24.64
2019-06-07T20:53:43.679Z,24.19
2019-06-07T20:56:14.724Z,23.76
2019-06-07T20:58:45.806Z,23.34
2019-06-07T21:01:16.877Z,22.95
2019-06-07T21:03:47.922Z,22.66
2019-06-07T21:06:19.013Z,22.43
2019-06-07T21:08:50.046Z,22.22
2019-06-07T21:11:21.120Z,22.10
2019-06-07T21:13:52.186Z,21.99
2019-06-07T21:16:23.240Z,21.89
2019-06-07T21:18:54.307Z,21.78
2019-06-07T21:21:25.358Z,21.71
2019-06-07T21:23:56.426Z,21.59
2019-06-07T21:26:27.490Z,21.48
2019-06-07T21:28:58.538Z,21.42
2019-06-07T21:31:29.594Z,21.41
2019-06-07T21:34:01.378Z,21.42
2019-06-07T21:36:38.796Z,21.44
2019-06-07T21:39:10.297Z,21.46
2019-06-07T21:41:41.409Z,21.46
2019-06-07T21:44:24.743Z,21.44
2019-06-07T21:46:55.813Z,21.42
2019-06-07T21:49:26.889Z,21.38
2019-06-07T21:51:57.969Z,21.35
2019-06-07T21:54:29.278Z,21.35
2019-06-07T21:57:00.354Z,21.36
2019-06-07T21:59:31.419Z,21.38
2019-06-07T22:02:13.618Z,21.38
2019-06-07T22:04:44.853Z,21.40
2019-06-07T22:07:15.925Z,21.40
2019-06-07T22:09:59.245Z,21.43
2019-06-07T22:12:30.335Z,21.46
2019-06-07T22:15:29.095Z,21.44
2019-06-07T22:17:43.241Z,21.46
2019-06-07T22:20:14.789Z,21.42
2019-06-07T22:22:45.877Z,21.41
2019-06-07T22:25:16.988Z,21.37
2019-06-07T22:27:48.085Z,21.32
2019-06-07T22:30:19.277Z,21.26
2019-06-07T22:32:50.371Z,21.23
2019-06-07T22:35:21.522Z,21.21
2019-06-07T22:37:52.607Z,21.19
2019-06-07T22:40:23.682Z,21.17
2019-06-07T22:42:54.733Z,21.14
2019-06-07T22:45:25.817Z,21.11
2019-06-07T22:47:56.883Z,21.08
2019-06-07T22:50:27.969Z,21.07
2019-06-07T22:52:59.031Z,21.07
2019-06-07T22:55:30.111Z,21.06
2019-06-07T22:58:01.242Z,21.07
2019-06-07T23:00:36.647Z,21.05
2019-06-07T23:03:08.522Z,21.04
2019-06-07T23:05:39.650Z,21.02
2019-06-07T23:08:11.051Z,21.04
2019-06-07T23:10:42.413Z,21.05
2019-06-07T23:13:13.659Z,21.05
2019-06-07T23:15:45.752Z,21.07
2019-06-07T23:18:17.693Z,21.07
2019-06-07T23:20:48.797Z,21.08
2019-06-07T23:23:20.068Z,21.07
2019-06-07T23:25:51.122Z,21.09
2019-06-07T23:28:28.044Z,21.08
2019-06-07T23:30:59.189Z,21.08
2019-06-07T23:33:30.248Z,21.05
2019-06-07T23:36:04.534Z,21.04
2019-06-07T23:38:35.606Z,21.03
2019-06-07T23:41:06.664Z,21.02
2019-06-07T23:43:37.778Z,20.99
2019-06-07T23:46:08.837Z,20.99
2019-06-07T23:48:39.915Z,20.99
2019-06-07T23:51:11.480Z,20.98
2019-06-07T23:53:42.656Z,20.97
2019-06-07T23:56:13.843Z,20.95
2019-06-07T23:58:44.886Z,20.94
